createdAt,value
2022-11-16T00:00:48.230Z,60.51
2022-11-16T00:03:22.852Z,60.53
2022-11-16T00:05:59.524Z,60.58
2022-11-16T00:08:36.703Z,60.64
2022-11-16T00:11:12.451Z,60.62
2022-11-16T00:13:46.670Z,60.67
2022-11-16T00:16:20.521Z,60.66
2022-11-16T00:18:58.308Z,60.60
2022-11-16T00:21:30.441Z,60.64
2022-11-16T00:24:03.405Z,60.04
2022-11-16T00:26:36.749Z,60.17
2022-11-16T00:29:14.667Z,60.22
2022-11-16T00:31:48.988Z,60.38
2022-11-16T00:34:23.078Z,60.45
2022-11-16T00:36:56.676Z,60.54
2022-11-16T00:39:30.321Z,60.65
2022-11-16T00:42:03.958Z,60.69
2022-11-16T00:44:37.659Z,60.73
2022-11-16T00:47:11.149Z,60.73
2022-11-16T00:49:44.607Z,60.69
2022-11-16T00:52:18.466Z,60.64
2022-11-16T00:54:51.967Z,60.66
2022-11-16T00:57:26.000Z,60.61
2022-11-16T00:59:59.803Z,60.83
2022-11-16T01:02:34.559Z,60.84
2022-11-16T01:05:11.048Z,60.76
2022-11-16T01:07:44.623Z,60.66
2022-11-16T01:10:20.902Z,60.65
2022-11-16T01:12:55.182Z,60.67
2022-11-16T01:15:29.507Z,60.58
2022-11-16T01:18:03.048Z,60.57
2022-11-16T01:20:36.781Z,60.46
2022-11-16T01:23:10.082Z,60.40
2022-11-16T01:25:43.190Z,60.45
2022-11-16T01:28:16.953Z,60.45
2022-11-16T01:30:52.065Z,60.53
2022-11-16T01:33:26.443Z,60.48
2022-11-16T01:36:00.108Z,60.49
2022-11-16T01:38:35.063Z,60.54
2022-11-16T01:41:09.209Z,60.46
2022-11-16T01:43:56.161Z,60.45
2022-11-16T01:46:31.886Z,60.48
2022-11-16T01:49:08.339Z,60.37
2022-11-16T01:51:44.341Z,60.40
2022-11-16T01:54:19.674Z,60.33
2022-11-16T01:56:57.380Z,60.36
2022-11-16T01:59:31.521Z,60.30
2022-11-16T02:02:06.501Z,59.73
2022-11-16T02:04:40.402Z,59.78
2022-11-16T02:07:17.307Z,59.91
2022-11-16T02:10:07.138Z,59.91
2022-11-16T02:12:56.687Z,59.92
2022-11-16T02:15:34.777Z,60.01
2022-11-16T02:18:19.567Z,59.96
2022-11-16T02:21:21.245Z,60.17
2022-11-16T02:24:30.181Z,60.25
2022-11-16T02:27:22.217Z,60.23
2022-11-16T02:29:57.369Z,59.98
2022-11-16T02:32:33.874Z,59.94
2022-11-16T02:35:10.797Z,60.05
2022-11-16T02:37:47.305Z,59.97
2022-11-16T02:40:26.013Z,59.91
2022-11-16T02:43:00.113Z,59.84
2022-11-16T02:45:36.514Z,59.44
2022-11-16T02:48:13.650Z,59.44
2022-11-16T02:50:49.968Z,59.45
2022-11-16T02:53:25.738Z,59.43
2022-11-16T02:56:00.763Z,59.51
2022-11-16T02:58:34.923Z,59.64
2022-11-16T03:01:12.064Z,59.83
2022-11-16T03:03:49.055Z,59.87
2022-11-16T03:06:25.566Z,59.79
2022-11-16T03:09:01.883Z,59.87
2022-11-16T03:11:56.334Z,59.87
2022-11-16T03:14:33.033Z,59.88
2022-11-16T03:17:08.919Z,59.94
2022-11-16T03:19:45.623Z,59.98
2022-11-16T03:22:21.893Z,59.97
2022-11-16T03:24:55.978Z,59.91
2022-11-16T03:27:32.364Z,59.88
2022-11-16T03:30:10.976Z,59.86
2022-11-16T03:32:48.682Z,59.85
2022-11-16T03:35:26.756Z,59.83
2022-11-16T03:38:02.150Z,59.78
2022-11-16T03:40:37.752Z,59.76
2022-11-16T03:43:11.724Z,59.71
2022-11-16T03:45:47.153Z,59.67
2022-11-16T03:48:20.737Z,59.69
2022-11-16T03:50:54.577Z,59.66
2022-11-16T03:53:28.193Z,59.69
2022-11-16T03:56:01.330Z,59.75
2022-11-16T03:58:35.862Z,59.73
2022-11-16T04:01:09.803Z,59.80
2022-11-16T04:03:43.378Z,59.90
2022-11-16T04:06:34.635Z,59.83
2022-11-16T04:09:25.526Z,59.83
2022-11-16T04:12:16.381Z,59.80
2022-11-16T04:15:07.559Z,59.95
2022-11-16T04:17:59.302Z,60.06
2022-11-16T04:20:50.380Z,60.10
2022-11-16T04:23:42.236Z,60.07
2022-11-16T04:26:16.047Z,60.25
2022-11-16T04:28:49.541Z,60.40
2022-11-16T04:31:50.722Z,60.48
2022-11-16T04:34:41.798Z,60.52
2022-11-16T04:37:35.583Z,60.54
2022-11-16T04:40:12.614Z,60.62
2022-11-16T04:42:47.802Z,60.73
2022-11-16T04:45:39.290Z,60.68
2022-11-16T04:48:14.924Z,60.69
2022-11-16T04:50:48.660Z,60.58
2022-11-16T04:53:24.475Z,60.68
2022-11-16T04:56:02.546Z,60.68
2022-11-16T04:58:36.578Z,60.57
2022-11-16T05:01:10.299Z,60.66
2022-11-16T05:03:43.656Z,60.61
2022-11-16T05:06:17.575Z,60.75
2022-11-16T05:08:51.292Z,60.76
2022-11-16T05:11:25.327Z,60.80
2022-11-16T05:13:58.804Z,60.89
2022-11-16T05:16:32.422Z,60.90
2022-11-16T05:19:23.600Z,60.87
2022-11-16T05:21:57.352Z,60.83
2022-11-16T05:24:34.516Z,60.86
2022-11-16T05:27:11.666Z,60.95
2022-11-16T05:29:46.186Z,60.99
2022-11-16T05:32:22.111Z,60.99
2022-11-16T05:34:56.110Z,60.98
2022-11-16T05:37:30.625Z,61.11
2022-11-16T05:40:04.048Z,61.46
2022-11-16T05:42:39.016Z,61.79
2022-11-16T05:45:18.399Z,61.43
2022-11-16T05:47:49.280Z,60.95
2022-11-16T05:50:23.610Z,60.48
2022-11-16T05:52:58.805Z,60.16
2022-11-16T05:55:32.292Z,60.29
2022-11-16T05:58:05.777Z,60.35
2022-11-16T06:00:39.805Z,60.37
2022-11-16T06:03:15.090Z,60.48
2022-11-16T06:05:48.850Z,60.54
2022-11-16T06:08:22.519Z,60.47
2022-11-16T06:10:57.131Z,60.41
2022-11-16T06:13:30.487Z,60.75
2022-11-16T06:16:05.475Z,61.13
2022-11-16T06:18:41.202Z,60.92
2022-11-16T06:21:19.801Z,60.04
2022-11-16T06:23:53.771Z,59.11
2022-11-16T06:26:27.467Z,58.32
2022-11-16T06:29:00.692Z,57.80
2022-11-16T06:31:34.262Z,57.23
2022-11-16T06:34:09.034Z,56.69
2022-11-16T06:36:44.681Z,56.46
2022-11-16T06:39:18.437Z,55.19
2022-11-16T06:41:52.195Z,55.10
2022-11-16T06:44:25.716Z,55.51
2022-11-16T06:47:00.558Z,56.00
2022-11-16T06:49:34.212Z,56.52
2022-11-16T06:52:08.914Z,56.40
2022-11-16T06:54:42.305Z,56.21
2022-11-16T06:57:15.771Z,55.61
2022-11-16T06:59:49.230Z,54.41
2022-11-16T07:02:23.651Z,55.08
2022-11-16T07:05:03.159Z,54.97
2022-11-16T07:07:33.826Z,54.03
2022-11-16T07:10:09.009Z,53.60
2022-11-16T07:12:44.404Z,53.45
2022-11-16T07:15:19.548Z,52.52
2022-11-16T07:17:53.195Z,52.43
2022-11-16T07:20:27.151Z,51.92
2022-11-16T07:23:03.251Z,52.02
2022-11-16T07:25:37.957Z,51.58
2022-11-16T07:28:11.181Z,50.85
2022-11-16T07:30:45.583Z,51.04
2022-11-16T07:34:12.816Z,50.77
2022-11-16T07:37:56.154Z,51.09
2022-11-16T07:40:49.744Z,52.33
2022-11-16T07:43:24.793Z,53.07
2022-11-16T07:46:44.743Z,53.19
2022-11-16T07:48:42.703Z,53.09
2022-11-16T07:51:27.059Z,53.14
2022-11-16T07:54:01.924Z,52.78
2022-11-16T07:56:35.509Z,51.99
2022-11-16T07:59:10.515Z,51.31
2022-11-16T08:01:45.195Z,51.65
2022-11-16T08:04:19.110Z,50.73
2022-11-16T08:06:54.531Z,50.71
2022-11-16T08:09:28.233Z,49.99
2022-11-16T08:12:02.121Z,50.09
2022-11-16T08:14:36.334Z,49.21
2022-11-16T08:17:09.684Z,47.92
2022-11-16T08:19:43.604Z,46.72
2022-11-16T08:22:18.779Z,45.64
2022-11-16T08:24:52.233Z,44.28
2022-11-16T08:27:25.599Z,44.26
2022-11-16T08:30:00.288Z,44.29
2022-11-16T08:32:34.811Z,41.76
2022-11-16T08:35:10.313Z,39.79
2022-11-16T08:37:43.817Z,37.61
2022-11-16T08:40:17.585Z,35.33
2022-11-16T08:42:54.119Z,33.75
2022-11-16T08:45:28.135Z,33.66
2022-11-16T08:48:04.207Z,34.42
2022-11-16T08:51:02.360Z,36.16
2022-11-16T08:53:16.232Z,41.53
2022-11-16T08:55:49.756Z,42.97
2022-11-16T08:58:23.403Z,42.37
2022-11-16T09:00:56.915Z,42.93
2022-11-16T09:03:31.095Z,42.95
2022-11-16T09:06:04.560Z,42.65
2022-11-16T09:08:39.895Z,41.35
2022-11-16T09:11:15.886Z,40.55
2022-11-16T09:13:51.241Z,39.02
2022-11-16T09:16:24.962Z,38.15
2022-11-16T09:18:58.710Z,36.75
2022-11-16T09:21:32.718Z,35.56
2022-11-16T09:24:07.484Z,34.58
2022-11-16T09:26:40.876Z,37.22
2022-11-16T09:29:16.438Z,35.19
2022-11-16T09:31:50.515Z,35.95
2022-11-16T09:34:24.145Z,38.52
2022-11-16T09:36:57.817Z,37.99
2022-11-16T09:39:32.695Z,38.13
2022-11-16T09:42:23.720Z,39.24
2022-11-16T09:45:04.875Z,40.41
2022-11-16T09:47:50.272Z,39.15
2022-11-16T09:50:35.607Z,38.45
2022-11-16T09:53:20.695Z,38.30
2022-11-16T09:55:55.516Z,36.24
2022-11-16T09:58:31.937Z,33.55
2022-11-16T10:01:09.124Z,30.27
2022-11-16T10:03:45.681Z,29.73
2022-11-16T10:06:23.874Z,29.89
2022-11-16T10:08:57.894Z,30.01
2022-11-16T10:12:13.608Z,29.93
2022-11-16T10:15:23.811Z,30.32
2022-11-16T10:18:03.631Z,28.94
2022-11-16T10:20:57.816Z,27.64
2022-11-16T10:23:38.354Z,27.23
2022-11-16T10:26:17.840Z,26.83
2022-11-16T10:29:01.454Z,26.59
2022-11-16T10:31:41.327Z,26.07
2022-11-16T10:34:17.903Z,25.84
2022-11-16T10:36:51.484Z,25.35
2022-11-16T10:39:27.645Z,24.91
2022-11-16T10:42:07.403Z,25.59
2022-11-16T10:44:42.836Z,25.64
2022-11-16T10:47:21.241Z,25.13
2022-11-16T10:50:00.778Z,25.15
2022-11-16T10:52:34.818Z,24.50
2022-11-16T10:55:11.705Z,24.03
2022-11-16T11:00:52.009Z,27.76
2022-11-16T11:03:34.347Z,23.25
2022-11-16T11:06:11.955Z,24.27
2022-11-16T11:08:45.806Z,24.72
2022-11-16T11:11:41.815Z,25.46
2022-11-16T11:14:16.832Z,27.30
2022-11-16T11:16:54.797Z,29.44
2022-11-16T11:19:30.530Z,31.22
2022-11-16T11:22:03.888Z,31.84
2022-11-16T11:24:44.465Z,32.93
2022-11-16T11:27:13.223Z,33.39
2022-11-16T11:29:47.942Z,33.86
2022-11-16T11:32:24.651Z,34.28
2022-11-16T11:35:01.100Z,34.59
2022-11-16T11:37:37.547Z,35.03
2022-11-16T11:40:22.818Z,34.89
2022-11-16T11:42:59.594Z,35.32
2022-11-16T11:45:42.625Z,35.62
2022-11-16T11:48:26.967Z,36.26
2022-11-16T11:51:03.397Z,36.99
2022-11-16T11:53:45.295Z,37.24
2022-11-16T11:56:19.039Z,37.50
2022-11-16T11:58:52.898Z,37.79
2022-11-16T12:02:06.543Z,38.28
2022-11-16T12:05:21.987Z,38.81
2022-11-16T12:08:17.423Z,39.41
2022-11-16T12:10:53.514Z,39.75
2022-11-16T12:13:38.855Z,40.13
2022-11-16T12:16:15.390Z,40.36
2022-11-16T12:19:14.650Z,40.85
2022-11-16T12:21:53.214Z,41.40
2022-11-16T12:24:45.617Z,42.07
2022-11-16T12:27:25.082Z,42.46
2022-11-16T12:30:03.241Z,42.34
2022-11-16T12:32:53.441Z,41.66
2022-11-16T12:35:40.517Z,41.13
2022-11-16T12:38:38.856Z,40.46
2022-11-16T12:41:20.804Z,40.05
2022-11-16T12:43:57.086Z,39.48
2022-11-16T12:46:34.830Z,39.05
2022-11-16T12:49:43.217Z,38.75
2022-11-16T12:52:30.621Z,38.88
2022-11-16T12:55:30.052Z,39.27
2022-11-16T12:57:53.458Z,39.60
2022-11-16T13:00:28.153Z,39.77
2022-11-16T13:03:16.840Z,40.03
2022-11-16T13:05:56.723Z,40.39
2022-11-16T13:11:39.760Z,41.25
2022-11-16T13:14:17.235Z,41.13
2022-11-16T13:16:51.575Z,41.38
2022-11-16T13:19:25.830Z,41.56
2022-11-16T13:22:03.785Z,41.69
2022-11-16T13:24:49.129Z,41.88
2022-11-16T13:27:32.878Z,42.05
2022-11-16T13:30:11.903Z,42.20
2022-11-16T13:33:00.972Z,42.33
2022-11-16T13:35:39.183Z,42.51
2022-11-16T13:38:14.314Z,42.64
2022-11-16T13:40:48.041Z,42.76
2022-11-16T13:43:22.771Z,42.92
2022-11-16T13:46:02.378Z,43.06
2022-11-16T13:48:39.031Z,43.20
2022-11-16T13:51:19.953Z,43.39
2022-11-16T13:56:32.057Z,43.71
2022-11-16T13:59:07.261Z,43.80
2022-11-16T14:02:00.578Z,43.94
2022-11-16T14:04:42.935Z,44.06
2022-11-16T14:07:39.418Z,44.11
2022-11-16T14:10:36.048Z,44.23
2022-11-16T14:13:14.131Z,44.36
2022-11-16T14:15:49.583Z,44.44
2022-11-16T14:18:37.460Z,44.58
2022-11-16T14:21:19.455Z,44.73
2022-11-16T14:24:06.317Z,44.79
2022-11-16T14:26:49.257Z,44.91
2022-11-16T14:29:58.901Z,44.95
2022-11-16T14:32:42.449Z,45.08
2022-11-16T14:35:26.601Z,45.28
2022-11-16T14:38:03.645Z,45.48
2022-11-16T14:40:39.920Z,45.47
2022-11-16T14:43:18.986Z,45.51
2022-11-16T14:45:55.800Z,45.59
2022-11-16T14:48:29.517Z,45.74
2022-11-16T14:51:11.898Z,45.67
2022-11-16T14:53:48.397Z,45.73
2022-11-16T14:56:22.856Z,45.73
2022-11-16T14:58:57.745Z,45.78
2022-11-16T15:01:33.770Z,45.76
2022-11-16T15:04:09.961Z,45.78
2022-11-16T15:06:46.101Z,45.74
2022-11-16T15:09:24.350Z,45.74
2022-11-16T15:12:16.465Z,45.72
2022-11-16T15:14:51.708Z,45.68
2022-11-16T15:17:31.796Z,45.63
2022-11-16T15:20:03.180Z,45.71
2022-11-16T15:22:42.837Z,45.71
2022-11-16T15:25:29.269Z,45.74
2022-11-16T15:28:06.401Z,45.70
2022-11-16T15:30:41.388Z,45.73
2022-11-16T15:33:18.727Z,45.71
2022-11-16T15:35:53.694Z,45.78
2022-11-16T15:38:29.550Z,45.73
2022-11-16T15:41:04.685Z,45.78
2022-11-16T15:44:01.379Z,45.87
2022-11-16T15:46:17.199Z,45.98
2022-11-16T15:48:50.574Z,46.06
2022-11-16T15:51:25.071Z,46.03
2022-11-16T15:54:00.489Z,46.11
2022-11-16T15:56:35.614Z,46.13
2022-11-16T15:59:16.268Z,46.23
2022-11-16T16:01:50.409Z,46.36
2022-11-16T16:04:24.169Z,46.35
2022-11-16T16:06:59.550Z,46.42
2022-11-16T16:09:35.076Z,46.57
2022-11-16T16:12:22.677Z,46.68
2022-11-16T16:14:56.050Z,46.73
2022-11-16T16:17:30.883Z,45.56
2022-11-16T16:20:06.687Z,46.36
2022-11-16T16:22:40.187Z,46.58
2022-11-16T16:25:32.309Z,46.72
2022-11-16T16:28:06.107Z,46.81
2022-11-16T16:30:40.159Z,46.77
2022-11-16T16:33:17.223Z,46.91
2022-11-16T16:35:51.108Z,47.01
2022-11-16T16:38:24.553Z,47.00
2022-11-16T16:41:02.699Z,47.15
2022-11-16T16:43:36.846Z,47.17
2022-11-16T16:46:14.249Z,47.23
2022-11-16T16:48:47.609Z,47.24
2022-11-16T16:51:21.179Z,47.25
2022-11-16T16:53:54.709Z,47.40
2022-11-16T16:56:28.144Z,47.49
2022-11-16T16:59:01.437Z,47.53
2022-11-16T17:01:35.204Z,47.56
2022-11-16T17:04:08.835Z,47.52
2022-11-16T17:06:46.468Z,47.56
2022-11-16T17:09:17.983Z,47.57
2022-11-16T17:11:52.053Z,47.61
2022-11-16T17:14:25.764Z,47.62
2022-11-16T17:17:02.370Z,47.72
2022-11-16T17:19:36.172Z,47.76
2022-11-16T17:22:10.319Z,47.76
2022-11-16T17:27:26.009Z,47.82
2022-11-16T17:30:02.299Z,48.00
2022-11-16T17:32:35.877Z,48.10
2022-11-16T17:35:10.149Z,48.21
2022-11-16T17:37:43.837Z,48.30
2022-11-16T17:40:17.626Z,48.38
2022-11-16T17:42:53.161Z,48.43
2022-11-16T17:45:27.631Z,48.49
2022-11-16T17:48:00.786Z,48.57
2022-11-16T17:50:34.482Z,48.59
2022-11-16T17:53:08.104Z,48.56
2022-11-16T17:55:41.488Z,48.54
2022-11-16T17:58:15.209Z,48.61
2022-11-16T18:00:49.211Z,48.72
2022-11-16T18:03:24.108Z,48.80
2022-11-16T18:06:05.948Z,49.00
2022-11-16T18:08:39.741Z,49.09
2022-11-16T18:11:15.442Z,49.16
2022-11-16T18:13:49.209Z,49.21
2022-11-16T18:16:24.011Z,49.31
2022-11-16T18:19:01.015Z,49.47
2022-11-16T18:21:36.474Z,49.50
2022-11-16T18:24:11.192Z,49.38
2022-11-16T18:26:45.242Z,49.39
2022-11-16T18:29:20.856Z,49.38
2022-11-16T18:31:54.730Z,49.36
2022-11-16T18:34:28.476Z,49.36
2022-11-16T18:37:01.978Z,49.36
2022-11-16T18:39:35.520Z,49.47
2022-11-16T18:42:10.763Z,49.52
2022-11-16T18:44:44.468Z,49.58
2022-11-16T18:47:18.583Z,49.81
2022-11-16T18:50:11.639Z,49.94
2022-11-16T19:08:42.177Z,48.60
2022-11-16T19:11:17.068Z,49.01
2022-11-16T19:13:54.244Z,49.29
2022-11-16T19:16:28.295Z,49.49
2022-11-16T19:19:02.230Z,49.68
2022-11-16T19:21:35.998Z,49.81
2022-11-16T19:24:10.914Z,49.93
2022-11-16T19:26:47.010Z,50.01
2022-11-16T19:29:23.686Z,49.98
2022-11-16T19:32:00.298Z,49.98
2022-11-16T19:34:34.185Z,49.98
2022-11-16T19:37:07.582Z,50.16
2022-11-16T19:39:41.143Z,50.33
2022-11-16T19:42:14.569Z,50.42
2022-11-16T19:44:48.063Z,50.40
2022-11-16T19:47:23.253Z,50.51
2022-11-16T19:49:56.583Z,50.38
2022-11-16T19:52:30.239Z,50.31
2022-11-16T19:55:03.762Z,50.36
2022-11-16T19:57:37.137Z,50.45
2022-11-16T20:00:13.089Z,50.45
2022-11-16T20:02:46.501Z,50.40
2022-11-16T20:05:20.312Z,50.27
2022-11-16T20:07:53.614Z,50.25
2022-11-16T20:10:28.570Z,50.28
2022-11-16T20:13:03.678Z,50.27
2022-11-16T20:15:36.585Z,49.10
2022-11-16T20:18:10.143Z,49.79
2022-11-16T20:20:43.782Z,50.02
2022-11-16T20:23:19.905Z,50.22
2022-11-16T20:25:55.039Z,50.30
2022-11-16T20:28:28.557Z,50.36
2022-11-16T20:31:05.127Z,50.28
2022-11-16T20:33:39.368Z,50.30
2022-11-16T20:36:14.260Z,50.38
2022-11-16T20:38:47.933Z,50.45
2022-11-16T20:41:23.627Z,50.61
2022-11-16T20:43:58.468Z,50.76
2022-11-16T20:46:33.819Z,50.97
2022-11-16T20:49:07.533Z,51.06
2022-11-16T20:51:40.934Z,51.19
2022-11-16T20:54:14.597Z,51.38
2022-11-16T20:56:49.707Z,51.45
2022-11-16T20:59:22.912Z,51.45
2022-11-16T21:01:56.428Z,51.26
2022-11-16T21:04:30.047Z,51.16
2022-11-16T21:07:03.640Z,51.09
2022-11-16T21:09:39.042Z,51.04
2022-11-16T21:12:29.791Z,51.08
2022-11-16T21:15:03.626Z,51.14
2022-11-16T21:17:37.237Z,51.12
2022-11-16T21:20:26.857Z,51.23
2022-11-16T21:22:47.945Z,51.30
2022-11-16T21:25:21.584Z,51.29
2022-11-16T21:27:57.193Z,51.37
2022-11-16T21:30:30.851Z,51.42
2022-11-16T21:33:04.342Z,51.44
2022-11-16T21:35:37.941Z,51.39
2022-11-16T21:38:11.433Z,51.27
2022-11-16T21:40:45.089Z,51.19
2022-11-16T21:43:18.998Z,51.26
2022-11-16T21:45:52.637Z,51.50
2022-11-16T21:48:25.952Z,51.59
2022-11-16T21:51:03.514Z,51.75
2022-11-16T21:53:37.991Z,52.08
2022-11-16T21:56:15.213Z,52.14
2022-11-16T21:58:50.020Z,52.06
2022-11-16T22:01:24.097Z,52.03
2022-11-16T22:04:15.269Z,52.00
2022-11-16T22:07:06.287Z,51.88
2022-11-16T22:09:39.999Z,51.79
2022-11-16T22:12:13.345Z,52.02
2022-11-16T22:14:46.693Z,52.18
2022-11-16T22:17:20.027Z,52.39
2022-11-16T22:19:53.360Z,52.36
2022-11-16T22:22:26.842Z,52.18
2022-11-16T22:25:00.230Z,52.07
2022-11-16T22:27:52.130Z,51.97
2022-11-16T22:30:12.188Z,51.90
2022-11-16T22:32:46.235Z,51.85
2022-11-16T22:35:19.923Z,51.74
2022-11-16T22:37:53.765Z,51.78
2022-11-16T22:40:32.998Z,51.72
2022-11-16T22:43:07.286Z,51.79
2022-11-16T22:45:40.833Z,51.89
2022-11-16T22:48:14.753Z,52.13
2022-11-16T22:50:48.003Z,52.20
2022-11-16T22:53:21.530Z,52.22
2022-11-16T22:55:55.223Z,52.17
2022-11-16T22:58:28.904Z,52.12
2022-11-16T23:01:02.564Z,52.08
2022-11-16T23:03:37.280Z,52.27
2022-11-16T23:06:11.594Z,52.45
2022-11-16T23:08:45.860Z,52.67
2022-11-16T23:11:38.999Z,52.97
2022-11-16T23:14:32.458Z,53.10
2022-11-16T23:17:06.327Z,53.14
2022-11-16T23:19:57.992Z,52.96
2022-11-16T23:22:49.217Z,52.90
2022-11-16T23:25:40.513Z,52.70
2022-11-16T23:28:16.408Z,52.71
2022-11-16T23:30:49.850Z,52.65
2022-11-16T23:33:25.221Z,52.73
2022-11-16T23:35:58.834Z,52.90
2022-11-16T23:38:32.239Z,53.03
2022-11-16T23:41:24.870Z,53.14
2022-11-16T23:43:58.974Z,53.25
2022-11-16T23:46:34.264Z,53.38
2022-11-16T23:49:07.644Z,53.58
2022-11-16T23:51:41.247Z,53.83
2022-11-16T23:54:14.746Z,53.84
2022-11-16T23:56:48.280Z,53.92
2022-11-16T23:59:21.673Z,53.91
